INFORMACIÓN METAR y TAF
METAR FOR HEGN
ADDS - METARS form results

(1811 UTC 26 February 2020)
Data provider http://aviationweather.gov/metar/data/
 
Forecast for: HEGN (HURGUADA , EG)
Text: TAF HEGN 261700Z 2618/2724 33008KT CAVOK
Forecast period: 1800 UTC 26 February 2020 to 0000 UTC 28 February 2020
Forecast type: FROM: standard forecast or significant change
Winds: from the NNW (330 degrees) at 9 MPH (8 knots; 4.1 m/s)
Visibility: 6 or more miles 10+ km)
Ceiling: unknown
Clouds: missing
Weather: NSW  (no significant weather)

 MAPA DE AEROPUERTO

 INFORMACIÓN DE PISTA
Pista 16 Longitud 13124 ft Ancho 148 ft
Elevación 50 ft Umbral desplazado 985 ft Rumbo de pista 165
Pista 34 Longitud 13124 ft Ancho 148 ft
Elevación 35 ft Umbral desplazado 0 ft Rumbo de pista 345

 FRECUANCIAS DEL AEROPUERTO
Tipo APP Nombre RADAR Frecuencia 123.4 MHZ
Tipo GND Nombre GND Frecuencia 121.9 MHZ
Tipo RDO Nombre RDO Frecuencia 585.9 MHZ
Tipo TWR Nombre TWR Frecuencia 119.6 MHZ

 RADIO AYUDAS DEL AEROPUERTO
Tipo VOR-DME Nombre Hurghada Frecuencia 116500 KHZ